KBJC

Rocky Mountain Metropolitan Airport

Denver, Colorado, USA
METAR KBJC 100612Z AUTO 25006KT 10SM CLR M01/M16 A3028 RMK AO2 PWINO
Observed Flight Rules
Dec-10 @ 06:12 UTC (16 minutes ago) Visual Flight Rules
Wind Visibility Clouds
250° at 6 knots 10 miles
  • Clear skies
Temperatures Readings
Current -1°C / 30°F
Dewpoint -16°C / 3°F
Humidity 31%
Altimeter 30.28" Hg
Pressure 1025 hPa
Elevation 1724
METAR KBJC 100612Z AUTO 25006KT 10SM CLR M01/M16 A3028 RMK AO2 PWINO
Observed Flight Rules
Dec-10 @ 06:12 UTC
(16 minutes ago)
VFR
Wind Visibility
250° at 6 knots 10 miles
Clouds
  • Clear skies
Temperature Dewpoint
-1°C / 30°F -16°C / 3°F
Humidity Altimeter Pressure
31% 30.28" Hg 1025 hPa